Hermon, Maine
Current Conditions -  °F | °C
As of 6:53 PM on Monday 20 Oct 2014 (Local Time) from KBGR Reporting Station
Few Clouds Few Clouds  
Wind Chill: 42°   Ceiling: Unl
Heat Index: 42°   Visibility: 10mi
Dew Point: 29°   Wind: 0mph
Humidity: 60%   Direction: NA
Pressure: 29.94"   Gusts: NA
Location:  44.8521°N, 68.8311°W
Report Text: KBGR 202253Z 00000KT 10SM FEW120 FEW200 06/M02 A2994 RMK AO2 SLP139 T00561017
Loading
Personal Weather Stations






























Interactive Weather Map
Tropical Storm Tracking
New forecast layout! Learn more

10-Day Weather Forecast

Advertisements
Track Severe Weather on mobile